Time;durP1;ratioP1;P1;durP2;ratioP2;P2;SDS_P1;SDS_P2;PMS_P1;PMS_P2;Temp;Humidity;BMP_temperature;BMP_pressure;BME280_temperature;BME280_humidity;BME280_pressure;Samples;Min_cycle;Max_cycle;Signal;HPM_P1;HPM_P2
2023/08/14 00:00:25;;;;;;;6.10;3.15;;;;;;;21.06;72.68;93241.03;2034318;70;20226;-80
2023/08/14 00:02:53;;;;;;;5.63;3.15;;;;;;;20.99;72.80;93242.28;2038105;70;20151;-78
2023/08/14 00:05:19;;;;;;;6.65;3.17;;;;;;;21.05;72.28;93250.31;2034398;70;20136;-79
2023/08/14 00:07:45;;;;;;;4.70;3.30;;;;;;;21.02;72.58;93252.38;2038216;70;20140;-78
2023/08/14 00:10:11;;;;;;;5.40;3.15;;;;;;;21.04;72.06;93246.72;2038077;70;20148;-81
2023/08/14 00:12:43;;;;;;;6.68;3.08;;;;;;;20.89;72.98;93246.94;2037812;70;20617;-79
2023/08/14 00:15:10;;;;;;;9.35;3.30;;;;;;;20.87;72.92;93239.03;2037706;70;20152;-78
2023/08/14 00:17:36;;;;;;;6.10;3.45;;;;;;;20.78;73.58;93240.16;2038000;70;20171;-79
2023/08/14 00:20:10;;;;;;;5.53;3.00;;;;;;;20.86;72.70;93233.97;2034570;70;20231;-78
2023/08/14 00:22:36;;;;;;;4.80;3.30;;;;;;;20.61;74.58;93224.63;2037984;70;20163;-79
2023/08/14 00:25:07;;;;;;;4.63;2.97;;;;;;;20.67;74.02;93224.81;2038181;70;20594;-78
2023/08/14 00:27:44;;;;;;;7.55;3.25;;;;;;;20.56;74.43;93220.88;2038306;70;20136;-79
2023/08/14 00:30:10;;;;;;;9.00;3.05;;;;;;;20.56;74.15;93209.44;2038021;70;20150;-79
2023/08/14 00:32:35;;;;;;;4.28;2.88;;;;;;;20.59;72.99;93212.38;2034623;70;20573;-78
2023/08/14 00:35:02;;;;;;;7.65;4.18;;;;;;;20.32;75.27;93217.22;2038235;70;20148;-79
2023/08/14 00:37:48;;;;;;;8.02;3.80;;;;;;;20.46;74.26;93220.53;2034456;70;20590;-78
2023/08/14 00:40:16;;;;;;;7.43;3.65;;;;;;;20.43;74.13;93212.56;2031527;70;20151;-79
2023/08/14 00:42:45;;;;;;;9.43;3.60;;;;;;;20.39;74.03;93216.03;2038119;70;20598;-80
2023/08/14 00:45:18;;;;;;;12.35;3.78;;;;;;;20.35;74.53;93218.75;2037999;70;20159;-78
2023/08/14 00:47:47;;;;;;;7.82;3.42;;;;;;;20.34;74.13;93214.41;2032296;70;20151;-78
2023/08/14 00:50:18;;;;;;;8.98;3.40;;;;;;;20.30;74.48;93215.03;2034517;70;20542;-79
2023/08/14 00:52:48;;;;;;;5.10;3.55;;;;;;;20.39;72.84;93218.91;2032080;70;20150;-79
2023/08/14 00:55:18;;;;;;;5.63;3.33;;;;;;;20.35;73.32;93213.03;2034469;70;20183;-79
2023/08/14 00:57:44;;;;;;;3.75;3.30;;;;;;;20.31;73.37;93225.06;2034475;70;20183;-79
2023/08/14 01:00:12;;;;;;;8.90;3.58;;;;;;;20.12;74.44;93223.00;2038033;70;20250;-78
2023/08/14 01:02:39;;;;;;;10.48;3.47;;;;;;;20.04;74.72;93222.72;2034528;70;20179;-79
2023/08/14 01:05:06;;;;;;;4.50;3.30;;;;;;;20.12;74.33;93216.56;2038181;70;20219;-79
2023/08/14 01:07:31;;;;;;;7.65;3.47;;;;;;;20.06;74.87;93214.22;2034555;70;20277;-79
2023/08/14 01:09:57;;;;;;;7.22;3.72;;;;;;;20.12;74.32;93216.56;2038114;70;20144;-79
2023/08/14 01:12:50;;;;;;;4.72;3.83;;;;;;;20.16;74.03;93211.72;2034474;70;20546;-79
2023/08/14 01:15:29;;;;;;;7.80;3.42;;;;;;;20.06;74.62;93208.50;2034152;70;20159;-78
2023/08/14 01:18:02;;;;;;;5.93;3.15;;;;;;;20.00;74.46;93203.31;2037965;70;20144;-81
2023/08/14 01:20:32;;;;;;;9.02;3.80;;;;;;;19.90;75.20;93216.53;2038882;70;20720;-79
2023/08/14 01:23:17;;;;;;;9.25;3.78;;;;;;;19.77;75.84;93216.09;2038150;70;20150;-79
2023/08/14 01:25:44;;;;;;;5.40;3.40;;;;;;;19.85;75.03;93207.09;2038023;70;20158;-79
2023/08/14 01:28:11;;;;;;;6.20;3.53;;;;;;;19.86;75.33;93205.69;2041080;70;20136;-79
2023/08/14 01:30:36;;;;;;;4.43;3.50;;;;;;;19.88;74.32;93205.03;2041208;70;20641;-80
2023/08/14 01:33:02;;;;;;;9.15;3.60;;;;;;;19.88;75.22;93207.88;2038325;70;20219;-80
2023/08/14 01:35:38;;;;;;;7.32;3.58;;;;;;;19.86;74.85;93194.25;2037871;70;20150;-79
2023/08/14 01:38:30;;;;;;;7.03;3.42;;;;;;;19.84;74.80;93197.06;2038241;70;20187;-81
2023/08/14 01:41:05;;;;;;;6.60;3.10;;;;;;;19.87;74.47;93189.28;2035513;70;20197;-79
2023/08/14 01:43:37;;;;;;;6.07;3.50;;;;;;;19.74;75.98;93196.69;2041218;70;20602;-77
2023/08/14 01:46:07;;;;;;;7.95;4.18;;;;;;;19.32;76.61;93199.47;2038201;70;20191;-77
2023/08/14 01:48:36;;;;;;;5.95;3.80;;;;;;;19.55;75.70;93198.88;2038028;70;20588;-79
2023/08/14 01:51:03;;;;;;;9.15;4.55;;;;;;;19.62;75.32;93196.28;2041291;70;20511;-80
2023/08/14 01:53:32;;;;;;;7.78;3.90;;;;;;;19.54;74.77;93194.56;2037848;70;20140;-78
2023/08/14 01:55:58;;;;;;;7.10;3.75;;;;;;;19.48;74.79;93190.78;2041021;70;20616;-78
2023/08/14 01:58:24;;;;;;;9.38;3.67;;;;;;;19.52;74.26;93183.09;2037786;70;20164;-79
2023/08/14 02:00:51;;;;;;;5.25;3.58;;;;;;;19.52;73.81;93180.22;2037797;70;20155;-79
2023/08/14 02:03:16;;;;;;;4.65;3.60;;;;;;;19.40;75.77;93174.09;2037836;70;20626;-79
2023/08/14 02:05:43;;;;;;;6.50;3.40;;;;;;;19.44;75.22;93174.22;2037852;70;20177;-79
2023/08/14 02:08:08;;;;;;;7.40;3.53;;;;;;;19.54;75.13;93173.84;2037817;70;20222;-78
2023/08/14 02:10:35;;;;;;;9.00;3.85;;;;;;;19.43;75.73;93174.91;2038219;70;20278;-79
2023/08/14 02:13:01;;;;;;;6.28;3.42;;;;;;;19.35;76.22;93172.47;2038190;70;20366;-80
2023/08/14 02:15:27;;;;;;;8.75;3.55;;;;;;;19.34;76.27;93164.59;2041383;70;20142;-80
2023/08/14 02:17:52;;;;;;;5.57;3.13;;;;;;;19.37;76.26;93168.94;2041683;70;20147;-81
2023/08/14 02:20:18;;;;;;;5.57;3.70;;;;;;;19.40;75.75;93159.09;2035575;70;20154;-80
2023/08/14 02:22:44;;;;;;;5.72;3.05;;;;;;;19.36;76.10;93153.22;2041729;70;20203;-80
2023/08/14 02:25:10;;;;;;;5.45;2.97;;;;;;;19.41;75.42;93163.38;2041489;70;20135;-80
2023/08/14 02:27:37;;;;;;;4.65;2.75;;;;;;;19.47;75.49;93155.78;2038233;70;20601;-80
2023/08/14 02:30:03;;;;;;;6.60;3.00;;;;;;;19.39;75.93;93151.91;2038021;70;20143;-80
2023/08/14 02:32:31;;;;;;;5.85;2.72;;;;;;;19.39;75.20;93149.06;2041451;70;20214;-80
2023/08/14 02:34:56;;;;;;;6.40;2.60;;;;;;;19.50;73.62;93143.03;2041570;70;20246;-80
2023/08/14 02:37:24;;;;;;;3.80;2.80;;;;;;;19.29;75.45;93140.88;2038198;70;20627;-81
2023/08/14 02:39:50;;;;;;;3.72;2.47;;;;;;;19.51;73.32;93149.47;2041355;70;20146;-79
2023/08/14 02:42:16;;;;;;;7.25;2.80;;;;;;;19.53;74.71;93144.56;2038205;70;20533;-80
2023/08/14 02:44:42;;;;;;;2.95;2.65;;;;;;;19.59;73.70;93140.47;2038092;70;20589;-79
2023/08/14 02:47:08;;;;;;;4.50;2.45;;;;;;;19.57;73.86;93131.84;2038090;70;20135;-80
2023/08/14 02:49:33;;;;;;;3.53;2.38;;;;;;;19.43;75.00;93129.94;2035318;70;20521;-80
2023/08/14 02:52:00;;;;;;;8.23;2.70;;;;;;;19.34;74.76;93136.75;2041431;70;20601;-81
2023/08/14 02:54:26;;;;;;;11.55;2.67;;;;;;;19.45;74.44;93135.72;2038146;70;20178;-80
2023/08/14 02:56:51;;;;;;;8.35;2.85;;;;;;;19.34;74.45;93122.50;2038118;70;20159;-80
2023/08/14 02:59:17;;;;;;;3.63;2.45;;;;;;;19.37;73.70;93117.56;2035266;70;20151;-80
2023/08/14 03:01:43;;;;;;;4.55;2.47;;;;;;;19.48;74.88;93133.66;2038198;70;20150;-80
2023/08/14 03:04:09;;;;;;;3.60;2.58;;;;;;;19.57;73.70;93131.84;2041422;70;20156;-81
2023/08/14 03:06:35;;;;;;;11.68;2.30;;;;;;;19.49;74.50;93133.00;2041352;70;20503;-80
2023/08/14 03:09:02;;;;;;;5.90;2.50;;;;;;;19.55;73.31;93132.47;2041333;70;20198;-81
2023/08/14 03:11:27;;;;;;;2.97;2.35;;;;;;;19.50;73.63;93131.59;2041394;70;20147;-80
2023/08/14 03:13:55;;;;;;;3.78;2.30;;;;;;;19.24;74.40;93125.72;2037987;70;20162;-80
2023/08/14 03:16:20;;;;;;;5.25;2.35;;;;;;;19.45;74.27;93127.16;2041329;70;20140;-81
2023/08/14 03:18:46;;;;;;;7.95;2.30;;;;;;;19.38;74.59;93125.50;2038082;70;20159;-79
2023/08/14 03:21:13;;;;;;;3.97;2.10;;;;;;;19.32;74.80;93124.53;2041343;70;20245;-81
2023/08/14 03:23:39;;;;;;;3.10;2.33;;;;;;;19.49;73.41;93129.41;2041527;70;20586;-80
2023/08/14 03:26:06;;;;;;;3.30;2.30;;;;;;;19.51;74.06;93132.34;2041417;70;20155;-80
2023/08/14 03:28:31;;;;;;;6.68;2.50;;;;;;;19.49;73.64;93130.16;2041327;70;20147;-80
2023/08/14 03:30:59;;;;;;;4.10;2.25;;;;;;;19.43;74.08;93129.94;2038154;70;20147;-80
2023/08/14 03:33:26;;;;;;;7.38;2.20;;;;;;;19.22;73.76;93124.91;2038086;70;20154;-80
2023/08/14 03:35:53;;;;;;;5.18;2.10;;;;;;;19.25;73.82;93127.19;2038114;70;20167;-79
2023/08/14 03:38:20;;;;;;;6.43;2.20;;;;;;;19.33;74.15;93123.88;2041328;70;20697;-80
2023/08/14 03:40:45;;;;;;;5.90;2.67;;;;;;;19.34;74.51;93133.91;2040898;70;20242;-79
2023/08/14 03:43:11;;;;;;;2.50;2.22;;;;;;;19.29;74.33;93124.47;2041170;70;20143;-80
2023/08/14 03:45:37;;;;;;;3.63;2.20;;;;;;;19.26;74.79;93122.94;2041386;70;20151;-80
2023/08/14 03:48:03;;;;;;;4.40;2.00;;;;;;;19.23;74.79;93126.38;2041343;70;20139;-79
2023/08/14 03:50:34;;;;;;;3.17;2.25;;;;;;;19.18;73.83;93121.91;2041392;70;20162;-79
2023/08/14 03:53:00;;;;;;;4.93;2.00;;;;;;;19.19;74.50;93131.94;2037851;70;20199;-80
2023/08/14 03:55:26;;;;;;;3.47;2.20;;;;;;;19.25;73.35;93135.75;2038032;70;20175;-81
2023/08/14 03:57:51;;;;;;;6.97;2.17;;;;;;;19.15;74.11;93132.53;2038064;70;20143;-81
2023/08/14 04:00:17;;;;;;;3.33;2.20;;;;;;;19.03;73.17;93146.34;2041636;70;20597;-80
2023/08/14 04:02:43;;;;;;;2.60;2.20;;;;;;;19.16;73.39;93136.84;2041938;70;20150;-80
2023/08/14 04:05:09;;;;;;;2.58;2.10;;;;;;;19.30;72.52;93139.47;2038444;70;20159;-81
2023/08/14 04:07:35;;;;;;;7.82;2.38;;;;;;;19.24;73.61;93130.69;2034797;70;20567;-80
2023/08/14 04:10:01;;;;;;;6.50;2.10;;;;;;;19.28;73.39;93130.81;2035086;70;20625;-79
2023/08/14 04:12:28;;;;;;;4.18;2.28;;;;;;;19.15;72.98;93129.69;2034571;70;20641;-80
2023/08/14 04:14:53;;;;;;;3.65;2.22;;;;;;;19.19;73.01;93123.38;2034558;70;20161;-79
2023/08/14 04:17:19;;;;;;;8.60;2.30;;;;;;;19.23;71.71;93123.50;2035300;70;20140;-80
2023/08/14 04:19:46;;;;;;;4.05;2.03;;;;;;;19.20;73.85;93125.56;2034757;70;20147;-80
2023/08/14 04:22:11;;;;;;;5.05;2.10;;;;;;;19.21;73.08;93118.47;2035402;70;20203;-80
2023/08/14 04:24:37;;;;;;;6.18;2.15;;;;;;;19.22;73.26;93119.19;2035302;70;20187;-80
2023/08/14 04:27:05;;;;;;;4.28;2.22;;;;;;;19.28;73.05;93136.53;2034761;70;20685;-82
2023/08/14 04:29:31;;;;;;;8.82;2.20;;;;;;;19.20;74.10;93130.56;2034655;70;20599;-79
2023/08/14 04:32:00;;;;;;;3.15;2.20;;;;;;;19.21;72.65;93127.03;2031997;70;20498;-81
2023/08/14 04:34:25;;;;;;;2.45;2.00;;;;;;;19.29;72.37;93118.03;2037406;70;20148;-80
2023/08/14 04:36:53;;;;;;;2.40;1.70;;;;;;;19.29;71.95;93123.75;2034694;70;20216;-80
2023/08/14 04:39:19;;;;;;;3.75;2.28;;;;;;;19.29;71.58;93118.03;2034720;70;20291;-79
2023/08/14 04:41:46;;;;;;;2.40;1.90;;;;;;;19.30;71.69;93117.38;2035328;70;20622;-79
2023/08/14 04:44:12;;;;;;;5.32;2.20;;;;;;;19.32;72.21;93116.69;2034456;70;20171;-80
2023/08/14 04:46:39;;;;;;;3.15;2.08;;;;;;;19.03;73.37;93120.69;2034593;70;20158;-80
2023/08/14 04:49:06;;;;;;;4.40;2.28;;;;;;;19.09;72.74;93118.03;2034599;70;20220;-80
2023/08/14 04:51:33;;;;;;;5.55;2.30;;;;;;;19.21;72.87;93123.44;2034627;70;20144;-81
2023/08/14 04:53:59;;;;;;;3.22;2.00;;;;;;;19.25;73.02;93124.31;2034588;70;20171;-81
2023/08/14 04:56:25;;;;;;;4.35;2.40;;;;;;;19.20;73.05;93110.56;2035131;70;20140;-80
2023/08/14 04:58:52;;;;;;;8.13;2.47;;;;;;;19.10;74.14;93116.63;2031670;70;20587;-80
2023/08/14 05:01:20;;;;;;;4.95;2.33;;;;;;;19.16;73.47;93116.13;2034447;70;20176;-81
2023/08/14 05:03:51;;;;;;;4.55;2.05;;;;;;;19.18;74.13;93122.63;2034512;70;20151;-80
2023/08/14 05:06:16;;;;;;;3.97;2.40;;;;;;;19.15;73.01;93115.41;2035847;70;20179;-81
2023/08/14 05:08:42;;;;;;;9.30;2.40;;;;;;;19.24;72.65;93111.44;2037693;70;20170;-80
2023/08/14 05:11:09;;;;;;;2.90;2.00;;;;;;;18.90;73.58;93119.50;2037772;70;20200;-82
2023/08/14 05:13:35;;;;;;;3.08;1.98;;;;;;;19.17;73.15;93117.59;2037760;70;20620;-81
2023/08/14 05:16:00;;;;;;;5.78;2.20;;;;;;;19.11;74.25;93120.97;2037815;70;20685;-81
2023/08/14 05:18:26;;;;;;;5.03;2.35;;;;;;;19.33;72.61;93120.28;2037800;70;20537;-80
2023/08/14 05:20:53;;;;;;;10.13;2.45;;;;;;;19.20;73.40;93113.44;2037781;70;20170;-80
2023/08/14 05:23:20;;;;;;;3.75;1.98;;;;;;;19.28;73.04;93110.84;2038344;70;20187;-79
2023/08/14 05:25:46;;;;;;;8.90;2.03;;;;;;;19.35;72.58;93123.22;2038412;70;20246;-80
2023/08/14 05:28:13;;;;;;;3.42;2.10;;;;;;;19.29;71.97;93118.75;2038299;70;20159;-81
2023/08/14 05:30:45;;;;;;;5.20;2.10;;;;;;;19.46;71.84;93117.19;2038424;70;20152;-81
2023/08/14 05:33:11;;;;;;;5.53;2.22;;;;;;;19.39;72.99;93118.38;2038324;70;20152;-82
2023/08/14 05:35:38;;;;;;;3.53;2.35;;;;;;;19.25;72.45;93118.63;2038342;70;20147;-81
2023/08/14 05:38:04;;;;;;;2.22;2.03;;;;;;;19.51;70.75;93124.50;2038349;70;20629;-81
2023/08/14 05:40:30;;;;;;;5.68;2.08;;;;;;;19.35;71.84;93123.94;2038234;70;20156;-80
2023/08/14 05:43:06;;;;;;;3.33;2.20;;;;;;;19.55;70.21;93121.78;2038156;70;20156;-80
2023/08/14 05:45:35;;;;;;;4.05;2.20;;;;;;;19.63;70.79;93124.22;2038182;70;20136;-80
2023/08/14 05:48:03;;;;;;;9.15;5.13;;;;;;;19.57;71.45;93114.69;2038232;70;20139;-80
2023/08/14 05:50:29;;;;;;;6.72;3.80;;;;;;;19.59;72.28;93126.19;2036853;70;20148;-79
2023/08/14 05:53:04;;;;;;;5.93;2.80;;;;;;;19.60;73.04;93116.97;2035069;70;20145;-79
2023/08/14 05:55:37;;;;;;;10.32;3.00;;;;;;;19.36;73.76;93121.81;2035067;70;20155;-79
2023/08/14 05:58:04;;;;;;;7.75;2.70;;;;;;;19.52;73.99;93123.13;2035026;70;20638;-80
2023/08/14 06:00:31;;;;;;;6.75;2.20;;;;;;;19.54;73.56;93125.31;2035117;70;20280;-80
2023/08/14 06:02:57;;;;;;;3.30;2.40;;;;;;;19.64;75.18;93122.09;2035018;70;20243;-79
2023/08/14 06:05:23;;;;;;;6.70;2.22;;;;;;;19.63;73.93;93129.94;2035242;70;20140;-86
2023/08/14 06:07:50;;;;;;;6.20;2.55;;;;;;;19.55;74.21;93130.34;2038398;70;20516;-85
2023/08/14 06:10:16;;;;;;;6.53;2.53;;;;;;;19.75;72.37;93121.06;2038307;70;20159;-85
2023/08/14 06:12:42;;;;;;;4.05;2.70;;;;;;;19.46;72.74;93119.31;2038288;70;20160;-84
2023/08/14 06:15:08;;;;;;;3.70;2.45;;;;;;;19.44;72.51;93119.25;2038129;70;20148;-85
2023/08/14 06:17:33;;;;;;;4.60;2.53;;;;;;;19.66;70.12;93120.06;2038349;70;20178;-83
2023/08/14 06:20:00;;;;;;;5.03;2.90;;;;;;;19.24;73.09;93120.00;2038152;70;20138;-85
2023/08/14 06:22:26;;;;;;;6.22;2.70;;;;;;;19.53;71.97;93116.00;2038433;70;20147;-87
2023/08/14 06:24:51;;;;;;;3.25;2.40;;;;;;;19.55;71.80;93118.94;2037766;70;20140;-83
2023/08/14 06:27:17;;;;;;;3.78;2.72;;;;;;;19.91;71.55;93113.00;2038561;70;20211;-91
2023/08/14 06:29:43;;;;;;;4.13;2.30;;;;;;;20.07;70.05;93109.97;2038609;70;20195;-86
2023/08/14 06:32:08;;;;;;;4.03;2.40;;;;;;;20.13;68.24;93097.97;2039110;70;20159;-87
2023/08/14 06:34:34;;;;;;;3.22;2.22;;;;;;;20.23;70.12;93099.03;2038505;70;20146;-90
2023/08/14 06:37:00;;;;;;;2.95;2.20;;;;;;;20.33;71.14;93107.19;2038480;70;20136;-88
2023/08/14 06:39:27;;;;;;;4.68;2.78;;;;;;;19.95;71.53;93100.97;2038048;70;20149;-91
2023/08/14 06:41:53;;;;;;;3.10;2.55;;;;;;;20.24;70.62;93097.63;2039457;70;20152;-88
2023/08/14 06:44:19;;;;;;;4.65;2.60;;;;;;;20.41;70.31;93095.28;2042645;70;20200;-88
2023/08/14 06:46:45;;;;;;;5.43;2.80;;;;;;;20.47;71.39;93106.88;2038686;70;20140;-87
2023/08/14 06:49:11;;;;;;;6.00;2.30;;;;;;;20.67;70.67;93098.97;2040311;70;20183;-84
2023/08/14 06:51:38;;;;;;;3.42;2.13;;;;;;;20.65;71.79;93093.16;2038267;70;20202;-85
2023/08/14 06:54:04;;;;;;;3.85;2.28;;;;;;;20.76;72.45;93102.78;2034975;70;20626;-83
2023/08/14 06:56:30;;;;;;;6.38;2.78;;;;;;;20.87;71.79;93100.94;2038203;70;20208;-83
2023/08/14 06:58:56;;;;;;;6.35;2.35;;;;;;;20.96;70.65;93106.22;2038113;70;20163;-83
2023/08/14 07:01:22;;;;;;;4.18;2.22;;;;;;;21.09;71.35;93095.13;2038389;70;20166;-84
2023/08/14 07:03:48;;;;;;;3.58;2.50;;;;;;;21.26;71.91;93102.78;2038297;70;20232;-85
2023/08/14 07:06:14;;;;;;;3.63;2.35;;;;;;;21.25;70.52;93099.16;2038258;70;20235;-87
2023/08/14 07:08:40;;;;;;;4.53;2.70;;;;;;;21.26;69.53;93097.78;2038294;70;20167;-88
2023/08/14 07:11:05;;;;;;;5.05;2.40;;;;;;;21.50;69.54;93094.13;2038430;70;20143;-85
2023/08/14 07:13:31;;;;;;;2.83;2.45;;;;;;;21.74;69.49;93094.75;2039213;70;20163;-84
2023/08/14 07:15:56;;;;;;;8.27;2.60;;;;;;;21.95;69.17;93098.88;2039119;70;20167;-85
2023/08/14 07:18:22;;;;;;;3.25;2.80;;;;;;;22.26;67.95;93088.16;2038730;70;20143;-85
2023/08/14 07:20:48;;;;;;;4.68;2.50;;;;;;;22.20;65.55;93093.75;2038501;70;20161;-85
2023/08/14 07:23:20;;;;;;;3.95;2.70;;;;;;;22.06;64.24;93088.38;2038468;70;20143;-85
2023/08/14 07:25:46;;;;;;;3.33;2.40;;;;;;;22.55;64.81;93081.66;2037820;70;20568;-85
2023/08/14 07:28:12;;;;;;;2.75;2.45;;;;;;;22.98;63.75;93085.47;2038918;70;20158;-86
2023/08/14 07:30:39;;;;;;;3.22;2.65;;;;;;;23.20;65.12;93076.56;2038901;70;20154;-85
2023/08/14 07:33:10;;;;;;;7.68;2.85;;;;;;;23.41;63.32;93091.31;2038325;70;20135;-85
2023/08/14 07:35:36;;;;;;;2.63;2.40;;;;;;;23.69;60.00;93088.31;2038251;70;20156;-85
2023/08/14 07:38:01;;;;;;;2.95;2.45;;;;;;;24.03;62.06;93077.38;2038216;70;20139;-86
2023/08/14 07:40:27;;;;;;;2.97;2.40;;;;;;;23.86;60.73;93081.41;2034881;70;20546;-86
2023/08/14 07:42:52;;;;;;;3.70;2.40;;;;;;;24.34;60.27;93075.72;2038308;70;20231;-85
2023/08/14 07:45:18;;;;;;;7.55;2.60;;;;;;;24.59;57.37;93071.06;2038179;70;20581;-86
2023/08/14 07:47:43;;;;;;;3.80;2.55;;;;;;;24.71;56.20;93066.91;2038344;70;20144;-85
2023/08/14 07:50:10;;;;;;;3.72;2.55;;;;;;;25.12;56.65;93070.38;2038415;70;20274;-86
2023/08/14 07:52:35;;;;;;;3.05;2.15;;;;;;;25.28;55.69;93068.38;2038550;70;20158;-87
2023/08/14 07:55:02;;;;;;;3.03;2.40;;;;;;;25.59;57.53;93068.72;2040664;70;20152;-86
2023/08/14 07:57:27;;;;;;;2.50;2.30;;;;;;;25.90;56.84;93057.53;2038227;70;20622;-83
2023/08/14 07:59:53;;;;;;;3.17;2.55;;;;;;;25.93;56.96;93056.81;2037977;70;20155;-83
2023/08/14 08:02:20;;;;;;;3.92;2.42;;;;;;;26.07;52.45;93053.34;2038122;70;20144;-83
2023/08/14 08:04:46;;;;;;;3.00;2.50;;;;;;;26.38;50.64;93065.13;2038129;70;20124;-83
2023/08/14 08:07:12;;;;;;;5.20;2.22;;;;;;;26.70;53.76;93058.88;2038012;70;20545;-83
2023/08/14 08:09:38;;;;;;;5.72;2.38;;;;;;;26.70;54.10;93056.72;2038105;70;20155;-84
2023/08/14 08:12:04;;;;;;;4.35;2.40;;;;;;;27.01;51.22;93051.81;2038080;70;20148;-84
2023/08/14 08:14:30;;;;;;;3.72;2.25;;;;;;;27.37;52.71;93053.44;2038007;70;20255;-84
2023/08/14 08:16:56;;;;;;;5.75;2.53;;;;;;;27.17;49.29;93048.31;2038215;70;20147;-84
2023/08/14 08:19:21;;;;;;;2.85;2.45;;;;;;;27.23;49.77;93051.22;2038179;70;20234;-84
2023/08/14 08:21:47;;;;;;;3.15;2.35;;;;;;;27.83;49.47;93041.31;2034939;70;20208;-84
2023/08/14 08:24:13;;;;;;;2.53;2.08;;;;;;;27.81;51.99;93049.25;2038040;70;20518;-83
2023/08/14 08:26:39;;;;;;;5.13;2.47;;;;;;;28.08;50.17;93047.09;2038081;70;20147;-84
2023/08/14 08:29:07;;;;;;;3.10;2.58;;;;;;;28.31;49.90;93042.75;2037909;70;20139;-83
2023/08/14 08:31:33;;;;;;;2.90;2.60;;;;;;;28.66;50.01;93044.94;2038002;70;20144;-83
2023/08/14 08:33:58;;;;;;;4.05;2.35;;;;;;;28.90;49.91;93039.09;2037995;70;20159;-83
2023/08/14 08:36:24;;;;;;;15.88;3.20;;;;;;;29.19;49.04;93033.97;2037981;70;20177;-83
2023/08/14 08:38:50;;;;;;;3.17;2.60;;;;;;;29.57;47.21;93032.38;2037987;70;20148;-83
2023/08/14 08:41:32;;;;;;;3.65;2.50;;;;;;;28.95;43.76;93026.06;2038081;70;20155;-83
2023/08/14 08:44:15;;;;;;;;;;;;;;;29.43;42.68;93030.22;2038248;70;20247;-83
2023/08/14 08:47:07;;;;;;;3.00;2.40;;;;;;;29.04;43.31;93033.28;2038549;70;20051;-82
2023/08/14 08:49:34;;;;;;;3.92;2.20;;;;;;;29.57;43.34;93020.75;2037079;70;20269;-83
2023/08/14 08:52:02;;;;;;;2.97;2.40;;;;;;;29.76;41.88;93030.78;2038503;70;20139;-83
2023/08/14 08:54:29;;;;;;;4.85;2.58;;;;;;;30.43;43.41;93017.28;2038491;70;20150;-83
2023/08/14 08:56:58;;;;;;;4.05;2.60;;;;;;;30.05;42.10;93019.00;2038461;70;20637;-82
2023/08/14 08:59:26;;;;;;;2.83;2.30;;;;;;;29.88;41.55;93007.50;2038365;70;20630;-84
2023/08/14 09:01:52;;;;;;;2.60;2.40;;;;;;;30.64;42.14;93021.41;2038475;70;20243;-83
2023/08/14 09:04:18;;;;;;;2.35;2.15;;;;;;;31.16;40.33;93010.00;2038598;70;20540;-83
2023/08/14 09:06:44;;;;;;;3.47;2.33;;;;;;;31.29;40.18;93008.41;2038435;70;20164;-83
2023/08/14 09:09:12;;;;;;;2.75;2.30;;;;;;;31.43;39.44;93013.31;2039360;70;20155;-83
2023/08/14 09:11:38;;;;;;;3.17;2.50;;;;;;;31.20;40.08;93013.56;2038622;70;20140;-83
2023/08/14 09:14:05;;;;;;;3.03;2.47;;;;;;;31.63;40.43;93016.69;2038467;70;20136;-83
2023/08/14 09:16:30;;;;;;;3.40;2.08;;;;;;;31.58;37.92;93009.50;2038450;70;20187;-83
2023/08/14 09:18:57;;;;;;;4.82;2.40;;;;;;;31.48;39.05;93003.09;2038583;70;20143;-84
2023/08/14 09:21:24;;;;;;;3.17;2.58;;;;;;;32.16;36.78;93008.66;2038427;70;20146;-84
2023/08/14 09:23:50;;;;;;;2.67;2.30;;;;;;;32.03;37.88;93005.97;2038487;70;20215;-84
2023/08/14 09:26:15;;;;;;;3.58;2.45;;;;;;;32.49;38.95;93000.88;2038686;70;20534;-83
2023/08/14 09:28:41;;;;;;;4.00;2.42;;;;;;;32.59;36.16;93002.91;2038260;70;20223;-83
2023/08/14 09:31:08;;;;;;;2.50;2.30;;;;;;;33.06;37.09;92993.31;2038369;70;20166;-83
2023/08/14 09:33:36;;;;;;;4.70;2.50;;;;;;;33.98;35.89;92995.06;2038392;70;20259;-83
2023/08/14 09:36:02;;;;;;;4.03;2.85;;;;;;;33.95;35.43;92982.00;2038335;70;20208;-83
2023/08/14 09:38:31;;;;;;;4.03;2.53;;;;;;;32.87;35.28;92975.44;2038409;70;20144;-86
2023/08/14 09:41:00;;;;;;;2.80;2.60;;;;;;;33.25;35.51;92990.75;2038422;70;20131;-83
2023/08/14 09:43:28;;;;;;;4.25;2.70;;;;;;;33.41;36.87;92975.84;2038329;70;20140;-83
2023/08/14 09:45:56;;;;;;;4.20;2.65;;;;;;;34.08;36.25;92979.50;2038426;70;20151;-83
2023/08/14 09:48:22;;;;;;;3.17;2.65;;;;;;;34.37;34.16;92976.63;2038535;70;20144;-83
2023/08/14 09:50:52;;;;;;;2.50;2.25;;;;;;;34.58;34.84;92976.84;2038416;70;20155;-83
2023/08/14 09:53:18;;;;;;;3.65;2.45;;;;;;;35.63;32.71;92979.09;2037853;70;20175;-83
2023/08/14 09:55:43;;;;;;;3.80;2.40;;;;;;;34.42;32.58;92966.25;2038246;70;20150;-84
2023/08/14 09:58:10;;;;;;;4.88;2.90;;;;;;;34.35;33.48;92962.75;2038234;70;20251;-83
2023/08/14 10:00:37;;;;;;;4.05;2.85;;;;;;;35.40;31.71;92955.59;2038483;70;20230;-83
2023/08/14 10:03:07;;;;;;;3.63;3.00;;;;;;;35.06;31.62;92968.28;2038500;70;20584;-82
2023/08/14 10:05:33;;;;;;;5.15;2.80;;;;;;;35.80;32.70;92955.19;2038315;70;20159;-82
2023/08/14 10:08:00;;;;;;;7.35;3.10;;;;;;;36.62;30.94;92962.81;2037884;70;20157;-82
2023/08/14 10:10:30;;;;;;;3.58;3.10;;;;;;;36.70;30.38;92958.16;2038425;70;20223;-81
2023/08/14 10:12:58;;;;;;;4.32;3.00;;;;;;;37.43;30.78;92963.69;2038399;70;20507;-83
2023/08/14 10:15:29;;;;;;;5.65;3.08;;;;;;;37.67;30.14;92959.88;2038448;70;20550;-82
2023/08/14 10:18:16;;;;;;;3.60;2.90;;;;;;;36.98;29.79;92951.34;2038331;70;20215;-84
2023/08/14 10:20:44;;;;;;;3.85;2.90;;;;;;;37.82;29.27;92943.13;2034696;70;20148;-85
2023/08/14 10:23:13;;;;;;;6.65;3.05;;;;;;;38.91;27.54;92947.59;2037322;70;20262;-82
2023/08/14 10:25:41;;;;;;;6.18;2.97;;;;;;;38.76;28.54;92939.34;2034416;70;20180;-83
2023/08/14 10:28:08;;;;;;;4.38;2.97;;;;;;;38.01;29.37;92934.31;2034578;70;20381;-82
2023/08/14 10:30:35;;;;;;;8.75;3.15;;;;;;;36.13;30.89;92928.53;2033911;70;20151;-84
2023/08/14 10:33:02;;;;;;;4.40;3.00;;;;;;;36.99;29.84;92925.66;2034579;70;20136;-83
2023/08/14 10:35:28;;;;;;;4.97;3.13;;;;;;;36.54;31.53;92921.34;2034758;70;20176;-83
2023/08/14 10:37:55;;;;;;;5.82;2.95;;;;;;;36.02;30.99;92919.34;2034298;70;20168;-82
2023/08/14 10:40:24;;;;;;;3.95;3.40;;;;;;;34.47;32.31;92923.78;2033730;70;20167;-81
2023/08/14 10:42:54;;;;;;;3.28;2.97;;;;;;;35.33;31.88;92912.66;2034838;70;20140;-81
2023/08/14 10:45:29;;;;;;;4.18;3.05;;;;;;;38.28;28.53;92925.16;2034458;70;20545;-81
2023/08/14 10:48:08;;;;;;;5.53;2.85;;;;;;;39.52;26.92;92916.16;2034532;70;20148;-81
2023/08/14 10:50:34;;;;;;;3.50;3.17;;;;;;;37.35;28.97;92914.81;2036800;70;20148;-81
2023/08/14 10:53:02;;;;;;;4.72;3.08;;;;;;;37.76;28.24;92919.84;2034690;70;20173;-81
2023/08/14 10:55:42;;;;;;;3.78;3.13;;;;;;;38.20;27.55;92924.75;2034513;70;20179;-81
2023/08/14 10:58:33;;;;;;;3.22;2.92;;;;;;;37.49;29.59;92916.50;2034495;70;20627;-81
2023/08/14 11:00:59;;;;;;;4.05;3.22;;;;;;;36.56;29.53;92906.59;2034382;70;20132;-80
2023/08/14 11:03:25;;;;;;;3.33;2.85;;;;;;;35.90;30.54;92910.94;2033858;70;20615;-81
2023/08/14 11:05:51;;;;;;;4.88;3.08;;;;;;;34.18;33.11;92899.66;2035283;70;20156;-80
2023/08/14 11:08:17;;;;;;;3.47;3.10;;;;;;;34.18;35.12;92897.47;2037122;70;20179;-81
2023/08/14 11:10:44;;;;;;;3.47;3.00;;;;;;;34.64;36.71;92886.78;2037115;70;20234;-82
2023/08/14 11:13:10;;;;;;;6.95;3.10;;;;;;;36.86;35.21;92893.09;2037045;70;20239;-81
2023/08/14 11:15:41;;;;;;;3.22;2.72;;;;;;;42.54;31.00;92902.88;2037809;70;20291;-83
2023/08/14 11:18:11;;;;;;;6.68;3.22;;;;;;;43.99;25.84;92909.69;2037597;70;20140;-82
2023/08/14 11:20:42;;;;;;;4.28;3.10;;;;;;;44.11;24.81;92902.25;2037242;70;20182;-81
2023/08/14 11:23:09;;;;;;;3.20;2.73;;;;;;;39.45;25.12;92887.78;2037737;70;20626;-81
2023/08/14 11:25:35;;;;;;;8.88;3.10;;;;;;;39.33;26.93;92889.09;2037537;70;20510;-82
2023/08/14 11:28:01;;;;;;;98.45;4.95;;;;;;;43.86;22.83;92903.81;2037463;70;20618;-80
2023/08/14 11:30:34;;;;;;;5.03;2.65;;;;;;;41.99;22.63;92888.25;2037262;70;20602;-83
2023/08/14 11:33:04;;;;;;;3.15;2.55;;;;;;;44.19;22.58;92895.09;2037771;70;20144;-83
2023/08/14 11:35:30;;;;;;;3.75;2.50;;;;;;;45.12;21.65;92894.81;2037619;70;20148;-83